createdAt,value
2018-12-22T00:02:13.968Z,0.60
2018-12-22T00:04:43.012Z,0.60
2018-12-22T00:07:12.503Z,0.60
2018-12-22T00:09:41.335Z,0.70
2018-12-22T00:12:10.141Z,0.50
2018-12-22T00:14:39.407Z,0.50
2018-12-22T00:17:08.231Z,0.62
2018-12-22T00:19:36.921Z,0.78
2018-12-22T00:22:05.843Z,0.70
2018-12-22T00:24:34.742Z,0.60
2018-12-22T00:27:03.810Z,0.60
2018-12-22T00:29:32.493Z,0.70
2018-12-22T00:32:01.375Z,0.55
2018-12-22T00:34:30.608Z,0.53
2018-12-22T00:37:00.027Z,0.50
2018-12-22T00:39:29.409Z,0.60
2018-12-22T00:41:58.411Z,0.50
2018-12-22T00:44:27.880Z,0.53
2018-12-22T00:46:57.287Z,0.62
2018-12-22T00:49:27.003Z,0.47
2018-12-22T00:51:55.910Z,0.55
2018-12-22T00:54:24.857Z,0.50
2018-12-22T00:56:54.433Z,0.50
2018-12-22T00:59:23.217Z,0.70
2018-12-22T01:01:52.092Z,0.50
2018-12-22T01:04:20.820Z,0.50
2018-12-22T01:06:49.684Z,0.33
2018-12-22T01:09:19.181Z,0.40
2018-12-22T01:11:47.841Z,0.40
2018-12-22T01:14:16.618Z,0.42
2018-12-22T01:16:45.479Z,0.50
2018-12-22T01:19:14.070Z,0.60
2018-12-22T01:21:42.877Z,0.40
2018-12-22T01:24:11.660Z,0.50
2018-12-22T01:26:40.789Z,0.55
2018-12-22T01:29:09.528Z,0.50
2018-12-22T01:31:39.271Z,0.30
2018-12-22T01:34:08.755Z,0.40
2018-12-22T01:36:39.666Z,0.45
2018-12-22T01:39:08.576Z,0.30
2018-12-22T01:41:37.495Z,0.50
2018-12-22T01:44:06.884Z,0.50
2018-12-22T01:46:36.427Z,0.40
2018-12-22T01:49:05.400Z,0.40
2018-12-22T01:51:34.619Z,0.30
2018-12-22T01:54:04.397Z,0.40
2018-12-22T01:56:33.078Z,0.35
2018-12-22T01:59:02.418Z,0.40
2018-12-22T02:01:31.146Z,0.42
2018-12-22T02:04:00.360Z,0.37
2018-12-22T02:06:28.956Z,0.37
2018-12-22T02:09:03.860Z,0.50
2018-12-22T02:11:32.991Z,0.40
2018-12-22T02:14:01.571Z,0.50
2018-12-22T02:16:30.180Z,0.40
2018-12-22T02:18:58.939Z,0.40
2018-12-22T02:21:27.602Z,0.30
2018-12-22T02:23:56.300Z,0.30
2018-12-22T02:26:24.971Z,0.35
2018-12-22T02:28:56.919Z,0.40
2018-12-22T02:31:25.163Z,0.40
2018-12-22T02:33:54.243Z,0.40
2018-12-22T02:36:22.817Z,0.40
2018-12-22T02:38:51.844Z,0.50
2018-12-22T02:41:21.394Z,0.50
2018-12-22T02:43:50.826Z,0.40
2018-12-22T02:46:19.405Z,0.50
2018-12-22T02:48:48.190Z,0.35
2018-12-22T02:51:16.744Z,0.30
2018-12-22T02:53:45.675Z,0.40
2018-12-22T02:56:14.240Z,0.50
2018-12-22T02:58:43.161Z,0.40
2018-12-22T03:01:12.824Z,0.60
2018-12-22T03:03:41.549Z,0.40
2018-12-22T03:06:10.408Z,0.30
2018-12-22T03:08:39.055Z,0.40
2018-12-22T03:11:08.017Z,0.40
2018-12-22T03:13:37.468Z,0.45
2018-12-22T03:16:06.015Z,0.37
2018-12-22T03:18:35.104Z,0.40
2018-12-22T03:21:04.033Z,0.40
2018-12-22T03:23:32.638Z,0.40
2018-12-22T03:26:07.766Z,0.50
2018-12-22T03:28:37.121Z,0.40
2018-12-22T03:31:05.805Z,0.40
2018-12-22T03:33:35.824Z,0.33
2018-12-22T03:36:04.672Z,0.37
2018-12-22T03:38:33.693Z,0.40
2018-12-22T03:41:03.306Z,0.40
2018-12-22T03:43:33.160Z,0.40
2018-12-22T03:46:02.319Z,0.55
2018-12-22T03:48:30.916Z,0.30
2018-12-22T03:51:00.447Z,0.30
2018-12-22T03:53:30.180Z,0.30
2018-12-22T03:55:59.389Z,0.33
2018-12-22T03:58:28.292Z,0.33
2018-12-22T04:00:56.858Z,0.28
2018-12-22T04:03:25.757Z,0.33
2018-12-22T04:05:55.167Z,0.30
2018-12-22T04:08:24.548Z,0.40
2018-12-22T04:10:53.144Z,0.50
2018-12-22T04:13:21.947Z,0.45
2018-12-22T04:15:50.847Z,0.30
2018-12-22T04:18:19.844Z,0.40
2018-12-22T04:20:50.063Z,0.30
2018-12-22T04:23:19.523Z,0.50
2018-12-22T04:25:48.720Z,0.40
2018-12-22T04:28:17.678Z,0.40
2018-12-22T04:30:46.489Z,0.40
2018-12-22T04:33:15.792Z,0.40
2018-12-22T04:35:44.438Z,0.50
2018-12-22T04:38:13.214Z,0.50
2018-12-22T04:40:42.026Z,0.40
2018-12-22T04:43:17.907Z,0.40
2018-12-22T04:45:47.406Z,0.50
2018-12-22T04:48:16.059Z,0.50
2018-12-22T04:50:45.484Z,0.30
2018-12-22T04:53:14.209Z,0.40
2018-12-22T04:55:43.289Z,0.35
2018-12-22T04:58:12.087Z,0.35
2018-12-22T05:00:41.831Z,0.40
2018-12-22T05:03:11.203Z,0.68
2018-12-22T05:05:40.921Z,0.40
2018-12-22T05:08:09.634Z,0.47
2018-12-22T05:10:39.137Z,0.42
2018-12-22T05:13:07.746Z,0.50
2018-12-22T05:15:37.208Z,0.50
2018-12-22T05:18:12.249Z,0.50
2018-12-22T05:20:41.065Z,0.50
2018-12-22T05:23:09.826Z,0.40
2018-12-22T05:25:38.431Z,0.30
2018-12-22T05:28:07.775Z,0.68
2018-12-22T05:30:36.476Z,0.50
2018-12-22T05:33:05.189Z,0.50
2018-12-22T05:35:33.798Z,0.50
2018-12-22T05:38:03.150Z,0.60
2018-12-22T05:40:31.838Z,0.40
2018-12-22T05:43:00.572Z,0.50
2018-12-22T05:45:29.831Z,0.47
2018-12-22T05:47:59.241Z,0.40
2018-12-22T05:50:28.754Z,0.42
2018-12-22T05:52:57.345Z,0.70
2018-12-22T05:55:26.280Z,0.50
2018-12-22T05:57:55.333Z,0.60
2018-12-22T06:00:23.985Z,0.50
2018-12-22T06:02:53.462Z,0.57
2018-12-22T06:05:22.083Z,0.60
2018-12-22T06:07:50.864Z,0.50
2018-12-22T06:10:20.226Z,0.50
2018-12-22T06:12:49.675Z,0.60
2018-12-22T06:15:18.408Z,0.50
2018-12-22T06:17:47.145Z,0.60
2018-12-22T06:20:15.712Z,0.50
2018-12-22T06:22:45.022Z,0.45
2018-12-22T06:25:13.623Z,0.47
2018-12-22T06:27:43.098Z,0.70
2018-12-22T06:30:12.526Z,0.60
2018-12-22T06:32:41.383Z,0.50
2018-12-22T06:35:10.032Z,0.50
2018-12-22T06:37:38.967Z,0.40
2018-12-22T06:40:07.972Z,0.50
2018-12-22T06:42:36.816Z,0.50
2018-12-22T06:45:06.001Z,0.50
2018-12-22T06:47:34.566Z,0.30
2018-12-22T06:50:04.166Z,0.50
2018-12-22T06:52:33.637Z,0.40
2018-12-22T06:55:02.511Z,0.60
2018-12-22T06:57:31.455Z,0.50
2018-12-22T07:00:00.178Z,0.50
2018-12-22T07:02:28.901Z,0.50
2018-12-22T07:04:58.455Z,0.62
2018-12-22T07:07:27.644Z,0.70
2018-12-22T07:09:56.413Z,0.75
2018-12-22T07:12:26.012Z,0.50
2018-12-22T07:14:55.843Z,0.40
2018-12-22T07:17:25.188Z,0.50
2018-12-22T07:19:54.341Z,0.33
2018-12-22T07:22:23.517Z,0.53
2018-12-22T07:24:52.802Z,0.50
2018-12-22T07:27:21.579Z,0.40
2018-12-22T07:29:50.287Z,0.60
2018-12-22T07:32:19.489Z,0.50
2018-12-22T07:34:48.463Z,0.53
2018-12-22T07:37:17.259Z,0.50
2018-12-22T07:39:45.926Z,0.50
2018-12-22T07:42:14.762Z,0.50
2018-12-22T07:44:43.335Z,0.60
2018-12-22T07:47:12.505Z,0.50
2018-12-22T07:49:41.428Z,0.60
2018-12-22T07:52:10.047Z,0.62
2018-12-22T07:54:39.280Z,0.72
2018-12-22T07:57:08.174Z,0.60
2018-12-22T07:59:37.010Z,0.57
2018-12-22T08:02:06.208Z,0.80
2018-12-22T08:04:35.161Z,0.82
2018-12-22T08:07:03.938Z,0.70
2018-12-22T08:09:33.369Z,0.75
2018-12-22T08:12:02.138Z,0.60
2018-12-22T08:14:30.806Z,0.65
2018-12-22T08:16:59.577Z,0.90
2018-12-22T08:19:28.472Z,0.80
2018-12-22T08:21:57.805Z,0.60
2018-12-22T08:24:26.407Z,0.70
2018-12-22T08:26:55.027Z,1.17
2018-12-22T08:29:24.576Z,0.80
2018-12-22T08:31:53.156Z,0.60
2018-12-22T08:34:23.644Z,0.70
2018-12-22T08:36:54.413Z,0.78
2018-12-22T08:39:23.029Z,0.70
2018-12-22T08:41:52.356Z,0.70
2018-12-22T08:44:20.943Z,0.70
2018-12-22T08:46:49.724Z,0.40
2018-12-22T08:49:19.097Z,0.50
2018-12-22T08:51:48.110Z,0.57
2018-12-22T08:54:16.906Z,0.80
2018-12-22T08:56:45.549Z,0.60
2018-12-22T08:59:14.182Z,0.80
2018-12-22T09:01:42.917Z,0.90
2018-12-22T09:04:11.841Z,0.90
2018-12-22T09:06:40.605Z,0.68
2018-12-22T09:09:10.091Z,0.82
2018-12-22T09:11:38.795Z,0.50
2018-12-22T09:14:08.374Z,0.53
2018-12-22T09:16:37.724Z,0.60
2018-12-22T09:19:06.817Z,0.88
2018-12-22T09:21:35.689Z,0.90
2018-12-22T09:24:04.479Z,0.68
2018-12-22T09:26:33.642Z,0.70
2018-12-22T09:29:03.177Z,0.88
2018-12-22T09:31:33.209Z,1.12
2018-12-22T09:34:02.232Z,1.80
2018-12-22T09:36:31.410Z,0.78
2018-12-22T09:39:00.685Z,1.10
2018-12-22T09:41:29.362Z,0.98
2018-12-22T09:43:57.914Z,0.95
2018-12-22T09:46:27.526Z,0.80
2018-12-22T09:48:56.727Z,0.90
2018-12-22T09:51:26.340Z,0.90
2018-12-22T09:53:55.036Z,0.82
2018-12-22T09:56:23.976Z,0.90
2018-12-22T09:58:52.643Z,0.80
2018-12-22T10:01:21.293Z,0.72
2018-12-22T10:03:50.451Z,1.10
2018-12-22T10:06:19.022Z,0.78
2018-12-22T10:08:47.916Z,0.72
2018-12-22T10:11:17.108Z,1.10
2018-12-22T10:13:45.744Z,0.80
2018-12-22T10:16:14.572Z,0.90
2018-12-22T10:18:43.265Z,0.90
2018-12-22T10:21:12.517Z,0.90
2018-12-22T10:23:41.425Z,1.00
2018-12-22T10:26:10.672Z,1.05
2018-12-22T10:28:39.613Z,0.90
2018-12-22T10:31:08.676Z,0.93
2018-12-22T10:33:37.654Z,0.80
2018-12-22T10:36:06.349Z,0.75
2018-12-22T10:38:35.370Z,1.07
2018-12-22T10:41:03.962Z,0.82
2018-12-22T10:43:33.704Z,0.82
2018-12-22T10:46:02.926Z,0.62
2018-12-22T10:48:32.219Z,1.10
2018-12-22T10:51:00.850Z,0.90
2018-12-22T10:53:29.741Z,0.95
2018-12-22T10:55:59.658Z,0.80
2018-12-22T10:58:28.977Z,0.82
2018-12-22T11:00:57.784Z,0.60
2018-12-22T11:03:27.117Z,1.10
2018-12-22T11:05:56.561Z,1.37
2018-12-22T11:08:25.297Z,1.70
2018-12-22T11:10:53.960Z,1.02
2018-12-22T11:13:23.158Z,1.40
2018-12-22T11:15:52.687Z,1.30
2018-12-22T11:18:21.486Z,0.80
2018-12-22T11:20:50.370Z,0.98
2018-12-22T11:23:20.542Z,1.07
2018-12-22T11:25:49.972Z,1.05
2018-12-22T11:28:19.401Z,1.00
2018-12-22T11:30:49.205Z,0.90
2018-12-22T11:33:18.201Z,1.27
2018-12-22T11:35:46.968Z,1.25
2018-12-22T11:38:15.863Z,1.00
2018-12-22T11:40:44.897Z,1.00
2018-12-22T11:43:14.699Z,1.32
2018-12-22T11:45:44.309Z,1.12
2018-12-22T11:48:39.261Z,1.20
2018-12-22T11:51:08.990Z,1.20
2018-12-22T11:53:38.557Z,1.10
2018-12-22T11:56:07.855Z,1.47
2018-12-22T11:58:38.323Z,1.07
2018-12-22T12:01:07.828Z,1.40
2018-12-22T12:03:37.159Z,1.57
2018-12-22T12:06:05.726Z,1.32
2018-12-22T12:08:34.592Z,1.47
2018-12-22T12:11:04.054Z,1.07
2018-12-22T12:13:33.483Z,1.20
2018-12-22T12:16:25.788Z,0.90
2018-12-22T12:19:11.089Z,0.95
2018-12-22T12:21:39.828Z,1.32
2018-12-22T12:24:09.164Z,1.50
2018-12-22T12:26:37.837Z,1.35
2018-12-22T12:29:06.770Z,1.30
2018-12-22T12:31:35.751Z,1.50
2018-12-22T12:34:04.700Z,1.22
2018-12-22T12:36:33.676Z,1.50
2018-12-22T12:39:02.628Z,1.60
2018-12-22T12:41:32.234Z,1.92
2018-12-22T12:44:08.172Z,1.20
2018-12-22T12:46:48.924Z,1.55
2018-12-22T12:49:18.924Z,1.30
2018-12-22T12:51:47.728Z,1.32
2018-12-22T12:54:16.699Z,1.12
2018-12-22T12:57:00.368Z,0.98
2018-12-22T12:59:32.120Z,1.52
2018-12-22T13:02:01.578Z,1.15
2018-12-22T13:04:30.983Z,1.20
2018-12-22T13:07:00.594Z,1.20
2018-12-22T13:09:29.407Z,1.27
2018-12-22T13:12:02.323Z,1.27
2018-12-22T13:14:31.083Z,1.17
2018-12-22T13:17:00.649Z,1.15
2018-12-22T13:19:29.450Z,1.00
2018-12-22T13:21:58.647Z,1.50
2018-12-22T13:24:28.221Z,1.10
2018-12-22T13:26:57.738Z,0.88
2018-12-22T13:29:26.494Z,1.50
2018-12-22T13:31:55.481Z,1.10
2018-12-22T13:34:24.448Z,1.05
2018-12-22T13:36:53.252Z,1.10
2018-12-22T13:39:27.508Z,1.25
2018-12-22T13:41:56.867Z,1.45
2018-12-22T13:44:25.897Z,1.42
2018-12-22T13:46:55.174Z,1.22
2018-12-22T13:49:24.632Z,1.32
2018-12-22T13:51:54.278Z,1.37
2018-12-22T13:54:25.330Z,1.30
2018-12-22T13:56:55.452Z,1.57
2018-12-22T13:59:25.063Z,1.62
2018-12-22T14:01:59.155Z,1.35
2018-12-22T14:04:28.818Z,1.15
2018-12-22T14:06:58.266Z,1.32
2018-12-22T14:09:27.638Z,1.20
2018-12-22T14:11:57.089Z,1.32
2018-12-22T14:14:32.523Z,1.00
2018-12-22T14:17:27.091Z,1.45
2018-12-22T14:20:12.000Z,1.55
2018-12-22T14:22:40.784Z,1.00
2018-12-22T14:25:20.740Z,1.30
2018-12-22T14:27:49.548Z,1.32
2018-12-22T14:30:18.486Z,1.42
2018-12-22T14:32:47.078Z,1.25
2018-12-22T14:35:36.190Z,1.72
2018-12-22T14:38:05.020Z,1.47
2018-12-22T14:40:35.015Z,1.12
2018-12-22T14:43:04.303Z,1.42
2018-12-22T14:45:33.001Z,1.20
2018-12-22T14:48:02.126Z,1.22
2018-12-22T14:50:30.910Z,1.52
2018-12-22T14:53:00.460Z,1.70
2018-12-22T14:55:31.734Z,2.00
2018-12-22T14:58:07.338Z,1.20
2018-12-22T15:00:36.755Z,1.60
2018-12-22T15:03:05.517Z,1.62
2018-12-22T15:05:34.241Z,1.55
2018-12-22T15:08:03.464Z,1.72
2018-12-22T15:10:32.033Z,1.50
2018-12-22T15:13:00.930Z,1.65
2018-12-22T15:15:29.883Z,1.32
2018-12-22T15:17:58.611Z,1.95
2018-12-22T15:20:30.496Z,1.32
2018-12-22T15:22:59.447Z,1.65
2018-12-22T15:25:28.573Z,1.32
2018-12-22T15:27:57.606Z,1.70
2018-12-22T15:30:26.308Z,1.60
2018-12-22T15:32:55.730Z,1.52
2018-12-22T15:35:24.384Z,1.27
2018-12-22T15:37:53.513Z,1.32
2018-12-22T15:40:22.993Z,2.05
2018-12-22T15:42:52.528Z,2.00
2018-12-22T15:45:22.705Z,2.27
2018-12-22T15:47:51.843Z,3.35
2018-12-22T15:50:22.377Z,3.75
2018-12-22T15:52:50.971Z,4.28
2018-12-22T15:55:20.556Z,2.17
2018-12-22T15:57:49.757Z,1.87
2018-12-22T16:00:18.932Z,1.60
2018-12-22T16:02:53.031Z,1.40
2018-12-22T16:05:18.573Z,1.20
2018-12-22T16:07:47.477Z,1.45
2018-12-22T16:10:16.465Z,1.52
2018-12-22T16:12:45.884Z,1.82
2018-12-22T16:15:17.569Z,1.82
2018-12-22T16:17:46.952Z,1.52
2018-12-22T16:20:15.851Z,1.45
2018-12-22T16:22:49.876Z,1.55
2018-12-22T16:25:19.452Z,1.32
2018-12-22T16:27:48.945Z,1.20
2018-12-22T16:30:22.385Z,1.15
2018-12-22T16:33:01.441Z,1.77
2018-12-22T16:35:24.012Z,1.40
2018-12-22T16:37:53.503Z,1.05
2018-12-22T16:40:22.411Z,1.35
2018-12-22T16:42:51.702Z,1.20
2018-12-22T16:45:21.233Z,1.30
2018-12-22T16:47:49.935Z,1.50
2018-12-22T16:50:19.111Z,1.30
2018-12-22T16:52:48.187Z,1.27
2018-12-22T16:55:17.147Z,1.37
2018-12-22T16:57:56.316Z,1.50
2018-12-22T17:00:33.828Z,1.60
2018-12-22T17:03:10.702Z,1.80
2018-12-22T17:05:36.466Z,2.02
2018-12-22T17:08:05.815Z,1.52
2018-12-22T17:10:40.888Z,1.45
2018-12-22T17:13:10.532Z,1.57
2018-12-22T17:15:42.857Z,1.47
2018-12-22T17:18:12.634Z,1.67
2018-12-22T17:20:41.502Z,1.55
2018-12-22T17:23:35.993Z,1.40
2018-12-22T17:26:07.260Z,2.10
2018-12-22T17:28:36.294Z,1.52
2018-12-22T17:31:05.430Z,1.52
2018-12-22T17:33:36.236Z,2.22
2018-12-22T17:36:05.671Z,1.30
2018-12-22T17:38:35.176Z,2.10
2018-12-22T17:41:04.604Z,2.45
2018-12-22T17:43:33.371Z,2.33
2018-12-22T17:46:02.701Z,2.20
2018-12-22T17:48:31.866Z,2.83
2018-12-22T17:51:00.564Z,2.08
2018-12-22T17:53:30.397Z,1.60
2018-12-22T17:55:59.017Z,1.37
2018-12-22T17:58:28.697Z,1.80
2018-12-22T18:00:58.165Z,1.62
2018-12-22T18:03:31.594Z,2.85
2018-12-22T18:06:01.039Z,3.22
2018-12-22T18:08:30.671Z,2.42
2018-12-22T18:11:00.302Z,2.00
2018-12-22T18:13:29.748Z,1.55
2018-12-22T18:16:00.426Z,1.62
2018-12-22T18:18:29.667Z,1.85
2018-12-22T18:20:58.378Z,2.47
2018-12-22T18:23:28.094Z,1.70
2018-12-22T18:25:57.507Z,2.15
2018-12-22T18:28:26.977Z,2.27
2018-12-22T18:30:55.634Z,1.87
2018-12-22T18:33:24.295Z,2.10
2018-12-22T18:35:53.252Z,2.10
2018-12-22T18:38:22.184Z,1.70
2018-12-22T18:40:50.836Z,1.65
2018-12-22T18:43:19.584Z,2.50
2018-12-22T18:45:48.232Z,2.22
2018-12-22T18:48:17.643Z,2.42
2018-12-22T18:50:46.693Z,1.70
2018-12-22T18:53:15.612Z,2.10
2018-12-22T18:55:45.237Z,1.85
2018-12-22T18:58:13.836Z,2.70
2018-12-22T19:00:42.616Z,2.00
2018-12-22T19:03:11.182Z,2.37
2018-12-22T19:05:40.084Z,4.08
2018-12-22T19:08:12.882Z,1.70
2018-12-22T19:10:46.300Z,2.00
2018-12-22T19:13:14.929Z,1.70
2018-12-22T19:15:43.530Z,1.40
2018-12-22T19:18:12.950Z,2.30
2018-12-22T19:20:45.908Z,1.65
2018-12-22T19:23:14.758Z,1.52
2018-12-22T19:25:43.491Z,1.42
2018-12-22T19:28:12.706Z,1.42
2018-12-22T19:30:41.433Z,1.60
2018-12-22T19:33:10.745Z,1.85
2018-12-22T19:35:40.315Z,1.55
2018-12-22T19:38:08.907Z,1.47
2018-12-22T19:40:38.671Z,1.70
2018-12-22T19:43:08.127Z,1.25
2018-12-22T19:45:39.293Z,1.30
2018-12-22T19:48:09.321Z,1.10
2018-12-22T19:50:38.286Z,1.40
2018-12-22T19:53:07.456Z,1.45
2018-12-22T19:55:36.723Z,1.60
2018-12-22T19:58:05.969Z,1.20
2018-12-22T20:00:34.876Z,1.70
2018-12-22T20:03:04.380Z,1.40
2018-12-22T20:05:33.680Z,1.40
2018-12-22T20:08:02.437Z,1.40
2018-12-22T20:10:31.217Z,1.65
2018-12-22T20:13:00.437Z,1.75
2018-12-22T20:15:29.189Z,1.30
2018-12-22T20:17:58.648Z,1.47
2018-12-22T20:20:29.632Z,1.40
2018-12-22T20:22:58.754Z,1.40
2018-12-22T20:25:28.360Z,1.32
2018-12-22T20:27:57.540Z,2.35
2018-12-22T20:30:26.365Z,1.20
2018-12-22T20:32:56.415Z,1.35
2018-12-22T20:35:25.146Z,1.02
2018-12-22T20:37:54.353Z,1.47
2018-12-22T20:40:23.244Z,1.45
2018-12-22T20:42:52.160Z,1.67
2018-12-22T20:45:21.715Z,1.62
2018-12-22T20:47:51.131Z,1.40
2018-12-22T20:50:20.397Z,1.87
2018-12-22T20:52:49.203Z,0.80
2018-12-22T20:55:18.324Z,1.00
2018-12-22T20:57:47.000Z,1.37
2018-12-22T21:00:15.761Z,1.47
2018-12-22T21:02:44.928Z,1.10
2018-12-22T21:05:13.757Z,1.32
2018-12-22T21:07:42.582Z,1.22
2018-12-22T21:10:11.266Z,1.45
2018-12-22T21:12:41.535Z,1.22
2018-12-22T21:15:10.968Z,1.62
2018-12-22T21:17:40.425Z,5.35
2018-12-22T21:20:09.676Z,1.57
2018-12-22T21:22:39.522Z,1.60
2018-12-22T21:25:08.540Z,1.50
2018-12-22T21:27:37.309Z,1.90
2018-12-22T21:30:08.164Z,1.55
2018-12-22T21:32:36.837Z,1.30
2018-12-22T21:35:06.017Z,1.62
2018-12-22T21:37:34.793Z,1.35
2018-12-22T21:40:03.726Z,1.47
2018-12-22T21:42:32.772Z,1.40
2018-12-22T21:45:01.358Z,1.65
2018-12-22T21:47:30.976Z,1.27
2018-12-22T21:50:00.406Z,1.30
2018-12-22T21:52:29.998Z,2.05
2018-12-22T21:54:59.676Z,1.77
2018-12-22T21:57:29.140Z,1.35
2018-12-22T21:59:58.702Z,1.70
2018-12-22T22:02:28.297Z,1.22
2018-12-22T22:04:57.096Z,1.60
2018-12-22T22:07:25.793Z,1.90
2018-12-22T22:09:54.411Z,1.50
2018-12-22T22:12:23.445Z,1.60
2018-12-22T22:14:52.048Z,1.50
2018-12-22T22:17:21.072Z,1.65
2018-12-22T22:19:50.086Z,1.52
2018-12-22T22:22:19.502Z,1.50
2018-12-22T22:24:48.092Z,1.70
2018-12-22T22:27:17.281Z,1.45
2018-12-22T22:29:47.153Z,1.30
2018-12-22T22:32:16.163Z,1.42
2018-12-22T22:34:45.661Z,1.37
2018-12-22T22:37:15.125Z,1.37
2018-12-22T22:39:44.342Z,1.37
2018-12-22T22:42:13.761Z,1.30
2018-12-22T22:44:42.358Z,1.17
2018-12-22T22:47:11.979Z,1.60
2018-12-22T22:49:41.320Z,1.50
2018-12-22T22:52:10.144Z,1.50
2018-12-22T22:54:39.514Z,1.62
2018-12-22T22:57:08.991Z,1.30
2018-12-22T22:59:38.653Z,1.87
2018-12-22T23:02:07.727Z,1.45
2018-12-22T23:04:36.639Z,1.30
2018-12-22T23:07:05.415Z,1.30
2018-12-22T23:09:34.232Z,1.50
2018-12-22T23:12:03.242Z,1.20
2018-12-22T23:14:32.964Z,1.32
2018-12-22T23:17:01.755Z,1.72
2018-12-22T23:19:30.924Z,2.05
2018-12-22T23:21:59.535Z,1.12
2018-12-22T23:24:28.379Z,1.70
2018-12-22T23:26:58.031Z,1.60
2018-12-22T23:29:27.604Z,1.98
2018-12-22T23:31:57.723Z,1.25
2018-12-22T23:34:27.336Z,1.40
2018-12-22T23:36:56.237Z,1.60
2018-12-22T23:39:25.241Z,1.40
2018-12-22T23:41:54.007Z,1.65
2018-12-22T23:44:23.670Z,1.30
2018-12-22T23:46:53.219Z,1.50
2018-12-22T23:49:22.543Z,1.40
2018-12-22T23:51:51.752Z,1.50
2018-12-22T23:54:20.625Z,1.60
2018-12-22T23:56:49.333Z,1.70
2018-12-22T23:59:18.076Z,1.32
